createdAt,value
2022-09-10T00:01:35.045Z,97.1
2022-09-10T00:06:34.991Z,97.0
2022-09-10T00:11:34.998Z,97.0
2022-09-10T00:16:35.002Z,96.9
2022-09-10T00:21:35.005Z,96.7
2022-09-10T00:26:35.046Z,96.5
2022-09-10T00:31:35.038Z,96.5
2022-09-10T00:36:35.007Z,96.4
2022-09-10T00:41:35.011Z,96.3
2022-09-10T00:46:35.018Z,96.4
2022-09-10T00:51:35.019Z,96.4
2022-09-10T00:56:35.049Z,96.3
2022-09-10T01:01:35.127Z,96.4
2022-09-10T01:06:35.026Z,96.5
2022-09-10T01:11:35.042Z,96.5
2022-09-10T01:16:35.064Z,96.5
2022-09-10T01:21:35.041Z,96.6
2022-09-10T01:26:35.163Z,96.6
2022-09-10T01:31:35.072Z,96.7
2022-09-10T01:36:35.046Z,96.7
2022-09-10T01:41:35.052Z,96.7
2022-09-10T01:46:35.061Z,96.7
2022-09-10T01:51:35.055Z,96.6
2022-09-10T01:56:35.068Z,96.6
2022-09-10T02:01:35.182Z,96.5
2022-09-10T02:06:35.066Z,96.5
2022-09-10T02:11:35.064Z,96.4
2022-09-10T02:16:35.145Z,96.3
2022-09-10T02:21:35.075Z,96.3
2022-09-10T02:26:35.089Z,96.3
2022-09-10T02:31:35.116Z,96.3
2022-09-10T02:36:35.201Z,96.3
2022-09-10T02:41:35.086Z,96.2
2022-09-10T02:46:35.086Z,96.2
2022-09-10T02:51:35.092Z,96.1
2022-09-10T02:56:35.114Z,96.3
2022-09-10T03:01:35.104Z,96.2
2022-09-10T03:06:35.098Z,96.3
2022-09-10T03:11:35.127Z,96.5
2022-09-10T03:16:35.251Z,96.6
2022-09-10T03:21:35.106Z,96.5
2022-09-10T03:26:35.126Z,96.6
2022-09-10T03:31:35.142Z,96.5
2022-09-10T03:36:35.112Z,96.6
2022-09-10T03:41:35.142Z,96.7
2022-09-10T03:46:35.127Z,96.7
2022-09-10T03:51:35.132Z,96.9
2022-09-10T03:56:35.193Z,96.8
2022-09-10T04:01:35.134Z,96.9
2022-09-10T04:06:35.138Z,97.0
2022-09-10T04:11:35.165Z,97.0
2022-09-10T04:16:35.165Z,97.1
2022-09-10T04:21:35.146Z,97.0
2022-09-10T04:26:35.160Z,97.0
2022-09-10T04:31:35.200Z,97.0
2022-09-10T04:36:35.154Z,97.0
2022-09-10T04:41:35.177Z,97.0
2022-09-10T04:46:35.160Z,97.0
2022-09-10T04:51:35.163Z,97.0
2022-09-10T04:56:35.181Z,97.0
2022-09-10T05:01:35.168Z,96.9
2022-09-10T05:06:35.169Z,96.8
2022-09-10T05:11:35.195Z,96.8
2022-09-10T05:16:35.225Z,96.9
2022-09-10T05:21:35.183Z,96.9
2022-09-10T05:26:35.206Z,96.9
2022-09-10T05:31:35.238Z,97.0
2022-09-10T05:36:35.193Z,97.1
2022-09-10T05:41:35.310Z,97.1
2022-09-10T05:46:35.194Z,97.3
2022-09-10T05:51:35.201Z,97.7
2022-09-10T05:56:35.232Z,98.1
2022-09-10T06:01:35.203Z,98.3
2022-09-10T06:06:35.210Z,98.4
2022-09-10T06:11:35.229Z,98.5
2022-09-10T06:16:35.251Z,98.7
2022-09-10T06:21:35.218Z,98.5
2022-09-10T06:26:35.231Z,98.4
2022-09-10T06:31:35.224Z,98.2
2022-09-10T06:36:35.223Z,98.0
2022-09-10T06:41:35.354Z,98.1
2022-09-10T06:47:19.654Z,97.9
2022-09-10T06:51:35.237Z,98.0
2022-09-10T06:56:35.254Z,98.0
2022-09-10T07:01:35.282Z,97.8
2022-09-10T07:06:35.247Z,97.5
2022-09-10T07:11:40.705Z,97.3
2022-09-10T07:16:35.253Z,96.5
2022-09-10T07:21:35.250Z,95.9
2022-09-10T07:26:35.269Z,95.4
2022-09-10T07:31:35.256Z,95.1
2022-09-10T07:36:35.265Z,94.3
2022-09-10T07:41:35.293Z,93.8
2022-09-10T07:46:35.266Z,92.9
2022-09-10T07:51:35.276Z,93.1
2022-09-10T07:56:35.286Z,93.5
2022-09-10T08:01:35.476Z,94.3
2022-09-10T08:06:35.278Z,94.1
2022-09-10T08:11:35.315Z,94.5
2022-09-10T08:16:35.285Z,94.5
2022-09-10T08:21:35.290Z,94.9
2022-09-10T08:26:35.306Z,95.4
2022-09-10T08:31:35.298Z,95.9
2022-09-10T08:36:35.296Z,96.7
2022-09-10T08:41:35.328Z,97.5
2022-09-10T08:46:35.301Z,97.7
2022-09-10T08:51:35.305Z,98.0
2022-09-10T08:56:35.321Z,98.2
2022-09-10T09:01:35.374Z,98.1
2022-09-10T09:06:35.322Z,98.3
2022-09-10T09:11:35.334Z,98.2
2022-09-10T09:16:35.327Z,98.1
2022-09-10T09:21:35.320Z,98.1
2022-09-10T09:26:35.341Z,97.8
2022-09-10T09:31:35.395Z,97.1
2022-09-10T09:36:35.339Z,97.5
2022-09-10T09:41:35.365Z,97.5
2022-09-10T09:46:35.340Z,97.5
2022-09-10T09:51:35.443Z,97.5
2022-09-10T09:56:35.379Z,97.3
2022-09-10T10:01:35.446Z,97.2
2022-09-10T10:06:35.354Z,96.8
2022-09-10T10:11:35.371Z,96.9
2022-09-10T10:16:35.357Z,95.8
2022-09-10T10:21:35.370Z,95.9
2022-09-10T10:26:35.375Z,96.2
2022-09-10T10:31:35.371Z,96.4
2022-09-10T10:36:35.372Z,96.2
2022-09-10T10:41:35.404Z,93.9
2022-09-10T10:46:35.439Z,92.3
2022-09-10T10:51:35.380Z,91.1
2022-09-10T10:56:35.396Z,91.9
2022-09-10T11:01:35.414Z,92.1
2022-09-10T11:06:35.389Z,92.0
2022-09-10T11:11:35.420Z,91.7
2022-09-10T11:16:38.487Z,88.9
2022-09-10T11:21:35.402Z,90.3
2022-09-10T11:26:35.415Z,87.4
2022-09-10T11:31:35.412Z,87.0
2022-09-10T11:36:35.413Z,86.3
2022-09-10T11:41:35.437Z,88.3
2022-09-10T11:46:35.489Z,89.1
2022-09-10T11:51:35.415Z,88.9
2022-09-10T11:56:35.434Z,87.8
2022-09-10T12:01:35.426Z,87.4
2022-09-10T12:06:35.427Z,87.7
2022-09-10T12:11:35.457Z,86.6
2022-09-10T12:16:35.430Z,85.8
2022-09-10T12:21:35.432Z,83.3
2022-09-10T12:26:35.451Z,79.9
2022-09-10T12:31:35.438Z,80.4
2022-09-10T12:36:35.440Z,80.9
2022-09-10T12:41:35.564Z,78.0
2022-09-10T12:46:35.503Z,78.8
2022-09-10T12:51:35.451Z,79.8
2022-09-10T12:56:35.469Z,79.7
2022-09-10T13:01:35.502Z,80.9
2022-09-10T13:06:35.460Z,80.3
2022-09-10T13:11:35.677Z,79.5
2022-09-10T13:16:35.468Z,76.7
2022-09-10T13:21:35.472Z,74.8
2022-09-10T13:26:35.486Z,75.1
2022-09-10T13:31:35.475Z,76.2
2022-09-10T13:36:35.482Z,77.4
2022-09-10T13:41:35.603Z,76.7
2022-09-10T13:46:35.543Z,78.1
2022-09-10T13:51:35.494Z,76.2
2022-09-10T13:56:35.501Z,77.8
2022-09-10T14:01:35.541Z,76.6
2022-09-10T14:06:35.498Z,77.3
2022-09-10T14:11:35.522Z,77.6
2022-09-10T14:16:35.501Z,79.6
2022-09-10T14:21:35.508Z,78.7
2022-09-10T14:26:35.529Z,79.6
2022-09-10T14:31:35.511Z,79.0
2022-09-10T14:36:35.513Z,79.5
2022-09-10T14:41:35.543Z,80.0
2022-09-10T14:46:35.556Z,78.1
2022-09-10T14:51:35.528Z,78.3
2022-09-10T14:56:35.536Z,79.1
2022-09-10T15:01:35.597Z,76.9
2022-09-10T15:06:35.536Z,76.4
2022-09-10T15:11:35.564Z,74.1
2022-09-10T15:16:35.539Z,72.7
2022-09-10T15:21:35.539Z,72.8
2022-09-10T15:26:35.563Z,75.6
2022-09-10T15:31:35.575Z,75.6
2022-09-10T15:36:35.567Z,75.1
2022-09-10T15:41:35.668Z,77.8
2022-09-10T15:46:35.630Z,79.1
2022-09-10T15:51:35.562Z,79.2
2022-09-10T15:56:35.574Z,78.4
2022-09-10T16:01:35.654Z,78.9
2022-09-10T16:06:35.571Z,79.3
2022-09-10T16:11:35.599Z,79.8
2022-09-10T16:16:35.577Z,80.6
2022-09-10T16:21:35.583Z,81.1
2022-09-10T16:26:35.597Z,81.6
2022-09-10T16:31:35.588Z,81.4
2022-09-10T16:36:35.600Z,81.3
2022-09-10T16:41:35.714Z,82.1
2022-09-10T16:46:35.672Z,82.6
2022-09-10T16:51:35.604Z,82.7
2022-09-10T16:56:35.625Z,83.7
2022-09-10T17:01:35.730Z,83.6
2022-09-10T17:06:35.613Z,83.9
2022-09-10T17:11:35.645Z,84.7
2022-09-10T17:16:35.614Z,85.1
2022-09-10T17:21:35.617Z,86.1
2022-09-10T17:26:35.681Z,86.7
2022-09-10T17:31:35.637Z,86.7
2022-09-10T17:36:35.629Z,87.0
2022-09-10T17:41:35.707Z,87.5
2022-09-10T17:46:35.660Z,87.0
2022-09-10T17:51:35.636Z,87.0
2022-09-10T17:56:35.664Z,87.1
2022-09-10T18:01:35.675Z,87.2
2022-09-10T18:06:35.647Z,87.3
2022-09-10T18:11:35.670Z,87.5
2022-09-10T18:16:35.652Z,87.7
2022-09-10T18:21:35.658Z,87.7
2022-09-10T18:26:35.671Z,88.2
2022-09-10T18:31:35.762Z,88.6
2022-09-10T18:36:35.664Z,88.8
2022-09-10T18:41:35.793Z,88.8
2022-09-10T18:46:35.745Z,89.2
2022-09-10T18:51:35.677Z,89.4
2022-09-10T18:56:35.689Z,90.2
2022-09-10T19:01:35.776Z,90.6
2022-09-10T19:06:35.694Z,90.9
2022-09-10T19:11:35.703Z,91.2
2022-09-10T19:16:35.689Z,91.4
2022-09-10T19:21:35.693Z,91.9
2022-09-10T19:26:35.708Z,92.1
2022-09-10T19:31:35.698Z,92.2
2022-09-10T19:36:35.714Z,92.5
2022-09-10T19:41:35.728Z,92.3
2022-09-10T19:46:35.731Z,92.3
2022-09-10T19:51:35.709Z,92.1
2022-09-10T19:56:35.720Z,91.8
2022-09-10T20:01:35.819Z,91.8
2022-09-10T20:06:35.721Z,91.8
2022-09-10T20:11:35.747Z,91.8
2022-09-10T20:16:35.727Z,92.1
2022-09-10T20:21:35.726Z,92.3
2022-09-10T20:26:35.742Z,92.4
2022-09-10T20:31:35.739Z,92.5
2022-09-10T20:36:35.748Z,92.5
2022-09-10T20:41:35.814Z,92.7
2022-09-10T20:46:35.800Z,92.8
2022-09-10T20:51:35.748Z,93.1
2022-09-10T20:56:35.767Z,93.3
2022-09-10T21:01:35.856Z,93.3
2022-09-10T21:06:35.758Z,93.5
2022-09-10T21:11:35.771Z,93.6
2022-09-10T21:16:35.764Z,93.6
2022-09-10T21:21:35.766Z,93.8
2022-09-10T21:26:35.776Z,93.8
2022-09-10T21:31:35.770Z,94.0
2022-09-10T21:36:35.785Z,94.2
2022-09-10T21:41:35.858Z,94.3
2022-09-10T21:46:35.803Z,94.2
2022-09-10T21:51:35.783Z,94.1
2022-09-10T21:56:35.798Z,94.3
2022-09-10T22:01:35.860Z,94.6
2022-09-10T22:06:35.801Z,94.8
2022-09-10T22:11:35.809Z,95.0
2022-09-10T22:16:35.792Z,95.1
2022-09-10T22:21:35.800Z,95.0
2022-09-10T22:26:35.815Z,95.1
2022-09-10T22:31:35.824Z,95.2
2022-09-10T22:36:35.820Z,95.3
2022-09-10T22:41:35.935Z,95.3
2022-09-10T22:46:35.901Z,95.4
2022-09-10T22:51:35.823Z,95.4
2022-09-10T22:56:35.845Z,95.4
2022-09-10T23:01:35.890Z,95.6
2022-09-10T23:06:35.829Z,95.7
2022-09-10T23:11:35.857Z,95.7
2022-09-10T23:16:35.833Z,95.9
2022-09-10T23:21:35.841Z,96.0
2022-09-10T23:26:35.854Z,96.0
2022-09-10T23:31:35.937Z,96.0
2022-09-10T23:36:35.845Z,96.0
2022-09-10T23:41:35.967Z,96.0
2022-09-10T23:46:35.887Z,95.9
2022-09-10T23:51:35.852Z,95.9
2022-09-10T23:56:35.872Z,95.8
